createdAt,value
2022-10-14T00:00:02.336Z,52.14
2022-10-14T00:02:40.879Z,52.75
2022-10-14T00:05:10.216Z,52.72
2022-10-14T00:07:38.313Z,52.68
2022-10-14T00:10:08.924Z,52.78
2022-10-14T00:12:36.687Z,52.43
2022-10-14T00:15:07.377Z,52.90
2022-10-14T00:17:38.318Z,52.74
2022-10-14T00:20:11.955Z,53.21
2022-10-14T00:22:39.349Z,53.02
2022-10-14T00:25:08.812Z,52.72
2022-10-14T00:27:39.009Z,52.69
2022-10-14T00:30:11.126Z,52.83
2022-10-14T00:32:38.389Z,52.63
2022-10-14T00:35:06.207Z,52.82
2022-10-14T00:37:33.748Z,53.02
2022-10-14T00:40:01.387Z,53.15
2022-10-14T00:42:35.923Z,52.97
2022-10-14T00:45:15.382Z,53.07
2022-10-14T00:47:48.711Z,53.03
2022-10-14T00:50:26.289Z,52.65
2022-10-14T00:52:56.634Z,52.62
2022-10-14T00:55:30.536Z,52.80
2022-10-14T00:58:01.081Z,53.14
2022-10-14T01:00:30.798Z,52.77
2022-10-14T01:03:24.110Z,53.14
2022-10-14T01:06:31.716Z,53.08
2022-10-14T01:09:04.291Z,53.39
2022-10-14T01:12:10.060Z,53.38
2022-10-14T01:15:24.835Z,53.65
2022-10-14T01:18:34.209Z,53.41
2022-10-14T01:21:10.417Z,53.42
2022-10-14T01:24:14.893Z,53.42
2022-10-14T01:27:11.079Z,53.32
2022-10-14T01:30:26.354Z,53.85
2022-10-14T01:33:34.452Z,53.83
2022-10-14T01:36:21.781Z,53.92
2022-10-14T01:39:13.450Z,53.98
2022-10-14T01:42:00.368Z,53.89
2022-10-14T01:44:38.111Z,53.58
2022-10-14T01:47:20.935Z,53.66
2022-10-14T01:50:05.079Z,53.68
2022-10-14T01:52:47.864Z,53.83
2022-10-14T01:55:22.582Z,53.90
2022-10-14T01:58:09.028Z,53.58
2022-10-14T02:00:48.671Z,53.32
2022-10-14T02:03:19.746Z,53.20
2022-10-14T02:05:58.380Z,53.47
2022-10-14T02:08:42.295Z,53.56
2022-10-14T02:11:17.593Z,53.34
2022-10-14T02:14:26.257Z,53.28
2022-10-14T02:17:02.395Z,52.95
2022-10-14T02:19:44.983Z,53.27
2022-10-14T02:23:07.046Z,53.46
2022-10-14T02:25:41.986Z,53.15
2022-10-14T02:28:31.720Z,53.20
2022-10-14T02:31:19.234Z,52.67
2022-10-14T02:33:55.344Z,52.54
2022-10-14T02:36:32.554Z,52.63
2022-10-14T02:39:08.538Z,52.78
2022-10-14T02:41:42.245Z,52.38
2022-10-14T02:44:12.556Z,52.48
2022-10-14T02:46:47.702Z,52.78
2022-10-14T02:49:19.660Z,52.69
2022-10-14T02:51:50.365Z,52.86
2022-10-14T02:54:18.680Z,53.20
2022-10-14T02:56:49.408Z,53.33
2022-10-14T02:59:20.246Z,53.47
2022-10-14T03:01:58.996Z,53.73
2022-10-14T03:04:34.107Z,53.17
2022-10-14T03:07:07.958Z,53.22
2022-10-14T03:09:47.749Z,52.84
2022-10-14T03:12:23.802Z,52.74
2022-10-14T03:15:00.372Z,52.29
2022-10-14T03:17:37.339Z,52.31
2022-10-14T03:20:16.381Z,52.65
2022-10-14T03:23:02.389Z,52.21
2022-10-14T03:28:41.116Z,52.41
2022-10-14T03:31:27.574Z,52.99
2022-10-14T03:34:12.742Z,52.72
2022-10-14T03:36:56.934Z,53.12
2022-10-14T03:39:41.620Z,53.85
2022-10-14T03:42:19.953Z,53.64
2022-10-14T03:44:54.730Z,53.99
2022-10-14T03:47:30.556Z,53.57
2022-10-14T03:50:03.540Z,53.94
2022-10-14T03:52:46.591Z,53.49
2022-10-14T03:55:33.105Z,53.39
2022-10-14T03:58:05.241Z,53.18
2022-10-14T04:00:37.427Z,53.21
2022-10-14T04:03:23.998Z,53.41
2022-10-14T04:05:52.525Z,53.07
2022-10-14T04:08:26.516Z,52.67
2022-10-14T04:11:11.330Z,52.74
2022-10-14T04:14:14.428Z,52.30
2022-10-14T04:16:52.328Z,52.12
2022-10-14T04:19:29.278Z,52.45
2022-10-14T04:22:05.343Z,52.15
2022-10-14T04:24:37.190Z,51.73
2022-10-14T04:27:08.742Z,51.83
2022-10-14T04:29:54.660Z,51.93
2022-10-14T04:32:31.515Z,51.69
2022-10-14T04:35:10.679Z,51.81
2022-10-14T04:37:49.314Z,51.84
2022-10-14T04:40:29.221Z,51.65
2022-10-14T04:43:04.359Z,51.60
2022-10-14T04:45:41.323Z,52.21
2022-10-14T04:51:30.419Z,51.82
2022-10-14T04:54:28.419Z,51.73
2022-10-14T04:57:05.064Z,51.68
2022-10-14T04:59:39.553Z,51.13
2022-10-14T05:02:12.742Z,51.04
2022-10-14T05:05:02.762Z,51.00
2022-10-14T05:07:38.003Z,51.29
2022-10-14T05:10:42.628Z,51.19
2022-10-14T05:13:23.594Z,51.08
2022-10-14T05:16:06.698Z,51.08
2022-10-14T05:18:38.997Z,50.94
2022-10-14T05:21:15.741Z,50.76
2022-10-14T05:24:09.218Z,50.58
2022-10-14T05:26:48.948Z,50.00
2022-10-14T05:29:26.936Z,50.72
2022-10-14T05:31:58.239Z,50.68
2022-10-14T05:34:46.385Z,50.72
2022-10-14T05:37:25.158Z,50.70
2022-10-14T05:39:58.209Z,50.42
2022-10-14T05:42:27.692Z,50.52
2022-10-14T05:44:58.229Z,51.07
2022-10-14T05:47:27.214Z,51.34
2022-10-14T05:49:59.588Z,50.87
2022-10-14T05:52:33.499Z,50.91
2022-10-14T05:55:05.509Z,50.78
2022-10-14T05:57:34.133Z,50.88
2022-10-14T06:00:02.256Z,50.78
2022-10-14T06:02:33.567Z,50.94
2022-10-14T06:05:03.993Z,50.94
2022-10-14T06:07:32.499Z,51.50
2022-10-14T06:10:00.593Z,51.21
2022-10-14T06:12:28.353Z,50.87
2022-10-14T06:14:56.369Z,50.63
2022-10-14T06:17:27.130Z,50.95
2022-10-14T06:19:57.644Z,50.98
2022-10-14T06:22:31.440Z,50.89
2022-10-14T06:25:03.973Z,50.77
2022-10-14T06:27:32.946Z,51.05
2022-10-14T06:30:00.720Z,50.92
2022-10-14T06:32:29.104Z,50.84
2022-10-14T06:34:57.628Z,50.91
2022-10-14T06:37:25.938Z,50.45
2022-10-14T06:40:01.146Z,50.53
2022-10-14T06:42:29.123Z,50.71
2022-10-14T06:45:05.128Z,50.16
2022-10-14T06:47:45.981Z,50.27
2022-10-14T06:50:23.092Z,50.00
2022-10-14T06:52:53.812Z,49.89
2022-10-14T06:55:21.775Z,50.11
2022-10-14T06:57:52.662Z,49.70
2022-10-14T07:00:20.776Z,49.41
2022-10-14T07:02:48.705Z,49.71
2022-10-14T07:05:20.315Z,49.66
2022-10-14T07:07:48.079Z,49.38
2022-10-14T07:10:21.767Z,48.89
2022-10-14T07:12:49.963Z,49.17
2022-10-14T07:15:18.287Z,49.03
2022-10-14T07:17:46.101Z,49.16
2022-10-14T07:20:13.865Z,48.83
2022-10-14T07:22:41.528Z,48.91
2022-10-14T07:25:09.492Z,48.95
2022-10-14T07:27:36.995Z,48.75
2022-10-14T07:30:06.144Z,48.74
2022-10-14T07:32:37.595Z,48.90
2022-10-14T07:35:07.814Z,48.40
2022-10-14T07:37:37.168Z,48.58
2022-10-14T07:40:07.856Z,48.99
2022-10-14T07:42:39.424Z,48.69
2022-10-14T07:45:08.002Z,48.46
2022-10-14T07:47:35.952Z,48.48
2022-10-14T07:50:07.564Z,48.19
2022-10-14T07:52:36.389Z,48.36
2022-10-14T07:55:05.759Z,48.64
2022-10-14T07:57:33.882Z,48.27
2022-10-14T08:00:01.945Z,48.34
2022-10-14T08:02:42.143Z,47.61
2022-10-14T08:07:59.296Z,45.95
2022-10-14T08:10:28.950Z,45.59
2022-10-14T08:12:58.241Z,44.87
2022-10-14T08:15:29.091Z,44.10
2022-10-14T08:17:57.474Z,43.24
2022-10-14T08:20:25.482Z,42.93
2022-10-14T08:22:53.180Z,42.13
2022-10-14T08:25:20.967Z,41.28
2022-10-14T08:27:51.790Z,41.10
2022-10-14T08:30:20.855Z,41.26
2022-10-14T08:32:49.065Z,41.46
2022-10-14T08:35:16.932Z,40.71
2022-10-14T08:37:44.905Z,40.57
2022-10-14T08:40:17.472Z,39.63
2022-10-14T08:42:55.170Z,39.67
2022-10-14T08:45:35.418Z,39.13
2022-10-14T08:48:11.593Z,39.33
2022-10-14T08:50:54.101Z,38.89
2022-10-14T08:53:39.170Z,38.50
2022-10-14T08:56:09.562Z,38.58
2022-10-14T08:58:46.941Z,38.59
2022-10-14T09:01:33.743Z,38.13
2022-10-14T09:04:07.949Z,37.50
2022-10-14T09:06:46.764Z,36.83
2022-10-14T09:09:45.833Z,36.53
2022-10-14T09:12:33.734Z,36.34
2022-10-14T09:15:34.966Z,36.81
2022-10-14T09:18:26.022Z,36.52
2022-10-14T09:20:57.881Z,37.18
2022-10-14T09:26:40.947Z,36.26
2022-10-14T09:29:53.692Z,36.93
2022-10-14T09:32:29.494Z,35.38
2022-10-14T09:35:01.520Z,36.02
2022-10-14T09:37:34.129Z,35.29
2022-10-14T09:40:17.460Z,34.97
2022-10-14T09:42:52.719Z,35.09
2022-10-14T09:45:25.483Z,34.93
2022-10-14T09:48:05.811Z,35.11
2022-10-14T09:50:49.486Z,35.10
2022-10-14T09:53:48.685Z,35.42
2022-10-14T09:56:20.784Z,35.50
2022-10-14T09:58:57.278Z,34.87
2022-10-14T10:01:32.328Z,35.02
2022-10-14T10:04:33.090Z,34.38
2022-10-14T10:07:07.049Z,34.42
2022-10-14T10:09:35.339Z,34.63
2022-10-14T10:12:33.554Z,33.84
2022-10-14T10:15:06.003Z,34.16
2022-10-14T10:17:38.999Z,34.10
2022-10-14T10:20:24.292Z,33.56
2022-10-14T10:22:52.751Z,34.68
2022-10-14T10:25:26.825Z,34.50
2022-10-14T10:27:58.435Z,35.25
2022-10-14T10:30:29.543Z,35.16
2022-10-14T10:33:27.348Z,34.65
2022-10-14T10:36:24.881Z,34.72
2022-10-14T10:39:17.712Z,34.97
2022-10-14T10:41:54.615Z,34.54
2022-10-14T10:44:35.725Z,35.84
2022-10-14T10:47:46.209Z,36.59
2022-10-14T10:50:27.791Z,36.54
2022-10-14T10:53:14.632Z,36.66
2022-10-14T10:56:01.346Z,36.13
2022-10-14T10:59:05.315Z,36.33
2022-10-14T11:01:38.788Z,37.58
2022-10-14T11:04:43.224Z,37.28
2022-10-14T11:07:58.547Z,38.38
2022-10-14T11:11:04.976Z,38.45
2022-10-14T11:14:18.145Z,37.05
2022-10-14T11:17:10.640Z,37.28
2022-10-14T11:19:43.929Z,37.20
2022-10-14T11:22:29.414Z,36.97
2022-10-14T11:25:28.060Z,36.77
2022-10-14T11:28:31.608Z,36.01
2022-10-14T11:31:04.082Z,36.85
2022-10-14T11:33:44.999Z,36.35
2022-10-14T11:36:25.522Z,35.85
2022-10-14T11:39:21.791Z,35.88
2022-10-14T11:42:05.374Z,36.10
2022-10-14T11:44:38.671Z,36.22
2022-10-14T11:47:11.507Z,35.41
2022-10-14T11:50:06.267Z,35.92
2022-10-14T11:52:40.888Z,35.24
2022-10-14T11:55:32.445Z,36.05
2022-10-14T11:58:07.024Z,34.93
2022-10-14T12:00:37.724Z,34.84
2022-10-14T12:03:44.786Z,34.45
2022-10-14T12:06:50.297Z,34.62
2022-10-14T12:09:51.718Z,34.83
2022-10-14T12:12:37.280Z,34.94
2022-10-14T12:15:25.879Z,34.96
2022-10-14T12:18:07.812Z,35.42
2022-10-14T12:21:17.779Z,34.39
2022-10-14T12:24:11.442Z,33.83
2022-10-14T12:26:58.816Z,33.34
2022-10-14T12:29:36.989Z,33.46
2022-10-14T12:32:13.679Z,33.49
2022-10-14T12:34:44.152Z,33.14
2022-10-14T12:37:32.727Z,32.37
2022-10-14T12:40:19.387Z,33.03
2022-10-14T12:43:16.444Z,33.17
2022-10-14T12:46:22.198Z,33.23
2022-10-14T12:49:03.273Z,32.96
2022-10-14T12:52:02.984Z,32.84
2022-10-14T12:54:49.405Z,34.90
2022-10-14T12:57:34.367Z,33.42
2022-10-14T13:00:27.659Z,32.97
2022-10-14T13:03:10.119Z,33.59
2022-10-14T13:05:56.810Z,33.47
2022-10-14T13:08:29.779Z,33.09
2022-10-14T13:11:20.925Z,33.31
2022-10-14T13:14:00.686Z,33.39
2022-10-14T13:16:31.158Z,32.88
2022-10-14T13:19:09.910Z,32.53
2022-10-14T13:21:47.097Z,31.92
2022-10-14T13:24:45.986Z,31.51
2022-10-14T13:28:06.714Z,31.63
2022-10-14T13:30:49.268Z,32.41
2022-10-14T13:43:31.696Z,32.43
2022-10-14T13:46:05.375Z,32.25
2022-10-14T13:48:40.711Z,32.38
2022-10-14T13:51:32.029Z,31.88
2022-10-14T13:54:19.124Z,31.78
2022-10-14T14:02:55.108Z,32.76
2022-10-14T14:05:35.481Z,32.08
2022-10-14T14:08:41.157Z,33.13
2022-10-14T14:11:43.304Z,33.78
2022-10-14T14:14:41.388Z,33.58
2022-10-14T14:17:28.960Z,34.20
2022-10-14T14:20:12.691Z,35.30
2022-10-14T14:22:48.439Z,35.38
2022-10-14T14:25:34.533Z,36.04
2022-10-14T14:28:23.467Z,35.53
2022-10-14T14:31:01.802Z,36.14
2022-10-14T14:33:34.633Z,35.81
2022-10-14T14:36:05.527Z,37.06
2022-10-14T14:38:36.261Z,37.28
2022-10-14T14:41:20.774Z,37.71
2022-10-14T14:44:24.011Z,38.50
2022-10-14T14:46:47.860Z,38.73
2022-10-14T14:49:26.658Z,39.11
2022-10-14T14:51:55.471Z,39.11
2022-10-14T14:54:24.645Z,39.17
2022-10-14T14:57:00.985Z,39.06
2022-10-14T14:59:33.384Z,38.64
2022-10-14T15:02:03.701Z,38.96
2022-10-14T15:04:35.776Z,39.80
2022-10-14T15:07:20.132Z,40.12
2022-10-14T15:09:57.099Z,39.25
2022-10-14T15:12:25.767Z,39.96
2022-10-14T15:14:58.407Z,40.41
2022-10-14T15:17:38.670Z,40.76
2022-10-14T15:20:12.492Z,40.89
2022-10-14T15:22:44.222Z,41.35
2022-10-14T15:25:38.234Z,41.70
2022-10-14T15:28:32.862Z,41.78
2022-10-14T15:31:09.739Z,41.42
2022-10-14T15:33:39.452Z,41.67
2022-10-14T15:36:11.560Z,41.91
2022-10-14T15:38:45.737Z,41.40
2022-10-14T15:41:19.900Z,41.36
2022-10-14T15:43:49.295Z,41.76
2022-10-14T15:46:36.423Z,41.01
2022-10-14T15:49:12.302Z,41.85
2022-10-14T15:51:43.763Z,41.58
2022-10-14T15:54:13.436Z,41.72
2022-10-14T15:56:41.368Z,42.31
2022-10-14T15:59:16.016Z,41.95
2022-10-14T16:01:45.984Z,43.12
2022-10-14T16:04:25.280Z,43.24
2022-10-14T16:06:57.084Z,43.45
2022-10-14T16:09:28.072Z,43.36
2022-10-14T16:11:58.474Z,43.42
2022-10-14T16:14:30.358Z,43.55
2022-10-14T16:16:58.502Z,44.05
2022-10-14T16:19:25.971Z,44.38
2022-10-14T16:21:53.633Z,44.87
2022-10-14T16:24:25.866Z,45.88
2022-10-14T16:27:03.783Z,46.48
2022-10-14T16:29:45.884Z,46.47
2022-10-14T16:32:25.108Z,46.99
2022-10-14T16:35:07.496Z,47.26
2022-10-14T16:37:52.076Z,46.71
2022-10-14T16:40:41.087Z,47.34
2022-10-14T16:43:23.237Z,47.85
2022-10-14T16:46:03.989Z,48.85
2022-10-14T16:48:41.640Z,49.08
2022-10-14T16:51:25.482Z,49.45
2022-10-14T16:54:26.011Z,50.00
2022-10-14T16:57:19.177Z,50.17
2022-10-14T17:00:10.019Z,49.76
2022-10-14T17:03:08.306Z,50.80
2022-10-14T17:05:41.074Z,50.64
2022-10-14T17:08:39.844Z,51.21
2022-10-14T17:11:22.093Z,51.75
2022-10-14T17:14:14.634Z,51.30
2022-10-14T17:16:59.021Z,51.42
2022-10-14T17:19:45.303Z,51.59
2022-10-14T17:22:41.422Z,51.58
2022-10-14T17:25:20.629Z,51.21
2022-10-14T17:27:56.341Z,52.16
2022-10-14T17:30:51.659Z,51.68
2022-10-14T17:34:29.702Z,52.54
2022-10-14T17:37:31.597Z,53.00
2022-10-14T17:40:33.607Z,53.08
2022-10-14T17:43:16.364Z,52.56
2022-10-14T17:45:52.116Z,53.34
2022-10-14T17:48:37.407Z,53.40
2022-10-14T17:51:35.356Z,53.37
2022-10-14T17:54:23.103Z,53.13
2022-10-14T17:57:07.805Z,53.40
2022-10-14T18:00:06.438Z,54.07
2022-10-14T18:02:59.555Z,53.90
2022-10-14T18:05:37.131Z,53.28
2022-10-14T18:08:19.346Z,53.57
2022-10-14T18:11:17.125Z,54.35
2022-10-14T18:14:04.960Z,54.38
2022-10-14T18:16:50.203Z,54.31
2022-10-14T18:19:27.846Z,53.70
2022-10-14T18:22:07.064Z,54.20
2022-10-14T18:24:43.623Z,54.28
2022-10-14T18:27:36.374Z,54.19
2022-10-14T18:30:15.052Z,54.51
2022-10-14T18:32:52.622Z,53.72
2022-10-14T18:35:34.865Z,55.14
2022-10-14T18:38:24.629Z,54.29
2022-10-14T18:41:22.326Z,54.51
2022-10-14T18:44:32.223Z,54.88
2022-10-14T18:50:10.070Z,55.53
2022-10-14T19:05:48.857Z,55.95
2022-10-14T19:08:55.893Z,55.91
2022-10-14T19:11:58.282Z,55.94
2022-10-14T19:14:41.078Z,55.74
2022-10-14T19:17:16.501Z,55.86
2022-10-14T19:20:07.438Z,55.99
2022-10-14T19:22:45.505Z,56.51
2022-10-14T19:25:45.156Z,57.07
2022-10-14T19:28:56.536Z,56.52
2022-10-14T19:31:37.515Z,56.32
2022-10-14T19:34:28.137Z,56.67
2022-10-14T19:37:13.793Z,56.51
2022-10-14T19:40:08.321Z,56.40
2022-10-14T19:42:54.659Z,56.06
2022-10-14T19:45:30.840Z,56.75
2022-10-14T19:48:20.487Z,56.57
2022-10-14T19:50:57.456Z,56.59
2022-10-14T19:53:34.701Z,56.75
2022-10-14T19:56:14.826Z,56.73
2022-10-14T19:59:26.127Z,57.92
2022-10-14T20:02:28.710Z,58.24
2022-10-14T20:08:30.709Z,57.66
2022-10-14T20:11:31.598Z,57.97
2022-10-14T20:14:28.793Z,58.02
2022-10-14T20:20:13.062Z,58.01
2022-10-14T20:22:55.546Z,57.83
2022-10-14T20:28:47.005Z,58.44
2022-10-14T20:31:34.287Z,58.34
2022-10-14T20:34:23.043Z,57.94
2022-10-14T20:44:24.526Z,58.67
2022-10-14T20:47:03.273Z,58.67
2022-10-14T20:49:38.722Z,58.67
2022-10-14T20:52:51.287Z,58.70
2022-10-14T20:55:33.770Z,58.59
2022-10-14T20:58:04.183Z,58.32
2022-10-14T21:00:35.660Z,59.09
2022-10-14T21:03:08.169Z,58.61
2022-10-14T21:05:38.493Z,59.25
2022-10-14T21:08:11.632Z,58.54
2022-10-14T21:10:39.187Z,58.96
2022-10-14T21:13:09.618Z,58.57
2022-10-14T21:15:41.943Z,58.54
2022-10-14T21:18:10.799Z,58.96
2022-10-14T21:20:43.507Z,59.11
2022-10-14T21:23:16.308Z,58.53
2022-10-14T21:25:47.503Z,58.56
2022-10-14T21:28:18.877Z,58.67
2022-10-14T21:30:52.237Z,58.57
2022-10-14T21:33:24.307Z,58.83
2022-10-14T21:35:55.756Z,58.81
2022-10-14T21:38:26.778Z,58.20
2022-10-14T21:41:02.300Z,58.59
2022-10-14T21:43:48.659Z,58.55
2022-10-14T21:46:22.446Z,58.89
2022-10-14T21:48:57.961Z,59.15
2022-10-14T21:51:32.120Z,59.00
2022-10-14T21:54:12.678Z,59.06
2022-10-14T21:56:42.871Z,58.62
2022-10-14T21:59:11.605Z,58.44
2022-10-14T22:01:42.058Z,58.58
2022-10-14T22:04:21.430Z,58.32
2022-10-14T22:06:50.917Z,58.14
2022-10-14T22:09:18.204Z,58.11
2022-10-14T22:11:45.604Z,58.03
2022-10-14T22:14:17.243Z,58.85
2022-10-14T22:16:55.236Z,58.27
2022-10-14T22:19:25.145Z,58.07
2022-10-14T22:21:52.543Z,58.26
2022-10-14T22:24:19.632Z,57.94
2022-10-14T22:26:52.434Z,58.39
2022-10-14T22:29:22.967Z,57.88
2022-10-14T22:31:53.289Z,57.70
2022-10-14T22:34:22.683Z,58.14
2022-10-14T22:36:49.782Z,57.86
2022-10-14T22:39:17.857Z,57.81
2022-10-14T22:41:47.536Z,57.73
2022-10-14T22:44:14.691Z,57.97
2022-10-14T22:46:44.897Z,58.19
2022-10-14T22:49:13.155Z,57.71
2022-10-14T22:51:43.915Z,57.63
2022-10-14T22:54:13.309Z,58.00
2022-10-14T22:56:43.666Z,57.74
2022-10-14T22:59:14.266Z,58.01
2022-10-14T23:01:46.063Z,58.20
2022-10-14T23:04:16.659Z,57.94
2022-10-14T23:06:49.424Z,58.28
2022-10-14T23:09:16.811Z,58.57
2022-10-14T23:11:47.317Z,58.18
2022-10-14T23:14:17.184Z,58.45
2022-10-14T23:16:46.967Z,58.14
2022-10-14T23:19:15.300Z,58.30
2022-10-14T23:21:45.795Z,58.33
2022-10-14T23:24:12.899Z,58.52
2022-10-14T23:26:43.147Z,57.99
2022-10-14T23:29:11.930Z,58.50
2022-10-14T23:31:40.927Z,58.65
2022-10-14T23:34:12.293Z,58.28
2022-10-14T23:36:39.908Z,58.75
2022-10-14T23:39:07.392Z,58.17
2022-10-14T23:41:34.736Z,57.99
2022-10-14T23:44:01.962Z,58.67
2022-10-14T23:46:29.386Z,58.09
2022-10-14T23:49:06.792Z,58.10
2022-10-14T23:51:43.897Z,57.22
2022-10-14T23:54:13.166Z,57.89
2022-10-14T23:56:40.375Z,57.54
2022-10-14T23:59:08.381Z,57.54
